Time;durP1;ratioP1;P1;durP2;ratioP2;P2;SDS_P1;SDS_P2;PMS_P1;PMS_P2;Temp;Humidity;BMP_temperature;BMP_pressure;BME280_temperature;BME280_humidity;BME280_pressure;Samples;Min_cycle;Max_cycle;Signal;HPM_P1;HPM_P2
2021/12/30 00:01:42;;;;;;;4.20;4.00;;;;;;;10.63;100.00;100633.78;4371961;32;20413;-77
2021/12/30 00:04:07;;;;;;;8.43;4.30;;;;;;;10.08;100.00;100558.81;4359903;32;20069;-75
2021/12/30 00:06:39;;;;;;;4.40;4.20;;;;;;;10.70;100.00;100662.22;4370924;32;20495;-75
2021/12/30 00:09:05;;;;;;;4.70;4.50;;;;;;;10.90;100.00;100705.78;4373801;32;20069;-77
2021/12/30 00:11:30;;;;;;;4.80;4.60;;;;;;;11.03;100.00;100727.00;4371179;32;20078;-75
2021/12/30 00:13:56;;;;;;;4.37;4.18;;;;;;;10.62;100.00;100679.31;4367255;32;20065;-75
2021/12/30 00:16:21;;;;;;;5.10;4.90;;;;;;;10.35;100.00;100630.81;4359945;32;20327;-76
2021/12/30 00:18:47;;;;;;;4.50;4.30;;;;;;;11.00;100.00;100735.03;4356097;32;20170;-76
2021/12/30 00:21:12;;;;;;;4.37;4.18;;;;;;;10.25;100.00;100623.50;4373732;32;20081;-75
2021/12/30 00:23:38;;;;;;;4.20;4.00;;;;;;;10.87;100.00;100719.09;4367162;32;20069;-75
2021/12/30 00:26:03;;;;;;;4.15;3.95;;;;;;;10.97;100.00;100727.31;4371621;32;20076;-76
2021/12/30 00:28:29;;;;;;;4.30;4.10;;;;;;;11.03;100.00;100760.31;4381672;32;20081;-76
2021/12/30 00:30:54;;;;;;;4.20;4.00;;;;;;;10.94;100.00;100777.38;4355863;32;20323;-76
2021/12/30 00:33:19;;;;;;;5.53;5.32;;;;;;;10.91;100.00;100767.03;4356525;32;20084;-76
2021/12/30 00:35:45;;;;;;;4.45;4.25;;;;;;;10.98;100.00;100773.66;4367589;32;20065;-75
2021/12/30 00:38:10;;;;;;;5.93;5.65;;;;;;;10.83;100.00;100763.97;4354207;32;20098;-76
2021/12/30 00:40:37;;;;;;;4.20;4.00;;;;;;;10.79;100.00;100755.41;4369304;32;20073;-76
2021/12/30 00:43:02;;;;;;;4.57;4.37;;;;;;;10.18;100.00;100663.16;4363363;32;20114;-76
2021/12/30 00:45:28;;;;;;;4.40;4.20;;;;;;;10.82;100.00;100757.00;4370820;32;20069;-75
2021/12/30 00:47:54;;;;;;;4.40;4.20;;;;;;;10.93;100.00;100796.69;4371171;32;20099;-76
2021/12/30 00:50:19;;;;;;;6.03;5.70;;;;;;;10.39;100.00;100718.09;4364242;32;20077;-75
2021/12/30 00:52:44;;;;;;;4.20;4.00;;;;;;;10.81;100.00;100766.66;4370946;32;20127;-75
2021/12/30 00:55:10;;;;;;;5.62;5.43;;;;;;;11.00;100.00;100798.06;4371428;32;20053;-75
2021/12/30 00:57:35;;;;;;;4.10;3.90;;;;;;;11.02;100.00;100798.81;4350883;32;20065;-74
2021/12/30 01:00:03;;;;;;;4.35;4.15;;;;;;;11.00;100.00;100800.69;4368309;32;20057;-75
2021/12/30 01:02:28;;;;;;;4.40;4.20;;;;;;;10.04;100.00;100626.28;4365161;32;20073;-74
2021/12/30 01:04:54;;;;;;;4.20;4.00;;;;;;;11.08;100.00;100793.25;4371421;32;20773;-76
2021/12/30 01:07:21;;;;;;;5.85;5.57;;;;;;;11.03;100.00;100797.06;4349309;32;20081;-76
2021/12/30 01:09:46;;;;;;;4.57;4.37;;;;;;;11.08;100.00;100795.88;4380047;32;20153;-75
2021/12/30 01:12:11;;;;;;;5.62;5.43;;;;;;;11.04;100.00;100802.22;4365395;32;20065;-75
2021/12/30 01:14:37;;;;;;;4.30;4.10;;;;;;;10.98;100.00;100798.16;4365807;32;20690;-75
2021/12/30 01:17:15;;;;;;;4.50;4.30;;;;;;;11.06;100.00;100804.75;4361428;32;20101;-75
2021/12/30 01:19:44;;;;;;;4.68;4.47;;;;;;;11.09;100.00;100786.22;4360931;32;20057;-76
2021/12/30 01:22:33;;;;;;;5.47;5.28;;;;;;;10.94;100.00;100773.00;4368282;32;20693;-75
2021/12/30 01:24:58;;;;;;;4.55;4.35;;;;;;;10.14;100.00;100645.00;4377970;32;20078;-75
2021/12/30 01:27:24;;;;;;;4.72;4.53;;;;;;;11.07;100.00;100788.94;4348224;32;20587;-75
2021/12/30 01:29:49;;;;;;;4.45;4.25;;;;;;;10.44;100.00;100694.22;4373618;32;20068;-74
2021/12/30 01:32:14;;;;;;;5.85;5.60;;;;;;;10.48;100.00;100693.97;4366957;32;21548;-75
2021/12/30 01:34:40;;;;;;;4.40;4.20;;;;;;;11.00;100.00;100795.41;4357718;32;20136;-76
2021/12/30 01:37:05;;;;;;;5.03;4.80;;;;;;;11.14;100.00;100815.72;4365979;32;20088;-75
2021/12/30 01:39:36;;;;;;;4.35;4.15;;;;;;;10.90;100.00;100778.47;4357732;32;20145;-75
2021/12/30 01:42:02;;;;;;;4.47;4.28;;;;;;;10.58;100.00;100736.34;4368363;32;20065;-74
2021/12/30 01:44:32;;;;;;;4.75;4.55;;;;;;;11.08;100.00;100816.87;4365205;32;20092;-75
2021/12/30 01:46:57;;;;;;;4.30;4.10;;;;;;;10.86;100.00;100788.25;4374793;32;20079;-75
2021/12/30 01:49:24;;;;;;;4.82;4.62;;;;;;;10.92;100.00;100798.44;4373308;32;20583;-75
2021/12/30 01:51:49;;;;;;;4.30;4.10;;;;;;;10.92;100.00;100802.84;4361577;32;20083;-75
2021/12/30 01:54:14;;;;;;;5.93;5.62;;;;;;;10.81;100.00;100813.09;4361506;32;20077;-76
2021/12/30 01:56:40;;;;;;;4.60;4.40;;;;;;;10.24;100.00;100726.69;4360187;32;20069;-74
2021/12/30 01:59:05;;;;;;;4.70;4.50;;;;;;;10.53;100.00;100777.75;4361902;32;20147;-74
2021/12/30 02:01:31;;;;;;;4.45;4.25;;;;;;;10.46;100.00;100763.22;4359291;32;20065;-75
2021/12/30 02:03:56;;;;;;;4.72;4.40;;;;;;;10.90;100.00;100820.47;4380293;32;20084;-76
2021/12/30 02:06:22;;;;;;;5.03;4.82;;;;;;;10.37;100.00;100723.41;4355655;32;20334;-75
2021/12/30 02:08:47;;;;;;;4.30;4.10;;;;;;;10.57;100.00;100755.66;4384863;32;20548;-75
2021/12/30 02:11:12;;;;;;;4.95;4.75;;;;;;;10.86;100.00;100817.16;4359269;32;20077;-74
2021/12/30 02:13:38;;;;;;;4.43;4.22;;;;;;;10.47;100.00;100746.56;4369457;32;20073;-75
2021/12/30 02:16:03;;;;;;;4.43;4.22;;;;;;;9.92;100.00;100647.88;4363341;32;20519;-75
2021/12/30 02:18:29;;;;;;;4.30;4.10;;;;;;;10.96;100.00;100810.50;4357961;32;20100;-75
2021/12/30 02:20:56;;;;;;;4.40;4.20;;;;;;;9.78;100.00;100649.44;4377384;32;20073;-74
2021/12/30 02:23:32;;;;;;;5.80;5.55;;;;;;;10.73;100.00;100751.31;4355286;32;20069;-75
2021/12/30 02:26:05;;;;;;;4.25;4.05;;;;;;;10.46;100.00;100703.72;4357672;32;20073;-76
2021/12/30 02:28:32;;;;;;;4.40;4.20;;;;;;;11.23;100.00;100811.78;4372011;32;20104;-75
2021/12/30 02:30:58;;;;;;;4.40;4.20;;;;;;;11.24;100.00;100805.56;4373994;32;20107;-74
2021/12/30 02:33:24;;;;;;;5.05;4.85;;;;;;;11.34;100.00;100806.78;4357455;32;20179;-74
2021/12/30 02:35:49;;;;;;;4.35;4.15;;;;;;;11.32;100.00;100796.34;4373051;32;20082;-75
2021/12/30 02:38:15;;;;;;;5.70;5.47;;;;;;;11.35;100.00;100801.44;4372950;32;20078;-75
2021/12/30 02:40:45;;;;;;;4.80;4.60;;;;;;;11.42;100.00;100809.00;4376855;32;20076;-76
2021/12/30 02:43:12;;;;;;;5.57;5.37;;;;;;;11.43;100.00;100805.44;4370057;32;20093;-75
2021/12/30 02:45:37;;;;;;;4.62;4.43;;;;;;;11.41;100.00;100805.53;4374649;32;20076;-75
2021/12/30 02:48:03;;;;;;;4.40;4.20;;;;;;;11.47;100.00;100806.97;4382995;32;20088;-75
2021/12/30 02:50:29;;;;;;;4.40;4.20;;;;;;;11.44;100.00;100807.97;4355770;32;20135;-75
2021/12/30 02:52:54;;;;;;;4.50;4.30;;;;;;;11.48;100.00;100812.12;4373854;32;20344;-75
2021/12/30 02:55:20;;;;;;;5.82;5.57;;;;;;;11.52;100.00;100815.44;4383479;32;20078;-76
2021/12/30 02:57:45;;;;;;;4.37;4.18;;;;;;;11.28;100.00;100770.31;4359118;32;21048;-75
2021/12/30 03:00:11;;;;;;;5.80;5.55;;;;;;;10.81;100.00;100701.03;4353568;32;20116;-76
2021/12/30 03:02:37;;;;;;;4.70;4.50;;;;;;;11.60;100.00;100828.19;4353386;32;20085;-75
2021/12/30 03:05:04;;;;;;;4.90;4.70;;;;;;;10.76;100.00;100682.03;4374562;32;20077;-76
2021/12/30 03:07:29;;;;;;;4.45;4.25;;;;;;;11.11;100.00;100740.56;4355049;32;20614;-75
2021/12/30 03:09:55;;;;;;;4.40;4.20;;;;;;;11.44;100.00;100794.00;4374815;32;20074;-76
2021/12/30 03:12:20;;;;;;;5.90;5.65;;;;;;;11.62;100.00;100828.94;4369813;32;20069;-75
2021/12/30 03:14:46;;;;;;;4.40;4.20;;;;;;;11.65;100.00;100836.69;4367239;32;20387;-77
2021/12/30 03:17:12;;;;;;;6.30;6.00;;;;;;;10.43;100.00;100637.47;4358618;32;20061;-75
2021/12/30 03:19:37;;;;;;;4.50;4.30;;;;;;;11.39;100.00;100807.38;4370102;32;20079;-77
2021/12/30 03:22:02;;;;;;;4.40;4.20;;;;;;;10.62;100.00;100709.00;4371568;32;20084;-77
2021/12/30 03:24:28;;;;;;;5.15;4.85;;;;;;;11.41;100.00;100812.56;4367288;32;20618;-76
2021/12/30 03:26:53;;;;;;;6.50;5.00;;;;;;;11.61;100.00;100837.78;4370829;32;20103;-76
2021/12/30 03:29:19;;;;;;;6.55;6.15;;;;;;;11.56;100.00;100841.47;4372079;32;20103;-76
2021/12/30 03:31:44;;;;;;;5.07;4.78;;;;;;;11.43;100.00;100818.59;4370360;32;20662;-76
2021/12/30 03:34:09;;;;;;;5.70;5.40;;;;;;;10.68;100.00;100694.72;4356870;32;20069;-76
2021/12/30 03:36:37;;;;;;;4.57;4.37;;;;;;;11.57;100.00;100832.66;4378918;32;20079;-77
2021/12/30 03:39:02;;;;;;;4.47;4.28;;;;;;;11.52;100.00;100804.94;4372954;32;20180;-77
2021/12/30 03:41:28;;;;;;;4.43;4.22;;;;;;;10.73;100.00;100698.81;4355996;32;20077;-75
2021/12/30 03:43:54;;;;;;;4.53;4.32;;;;;;;11.64;100.00;100833.16;4369701;32;20066;-76
2021/12/30 03:46:19;;;;;;;5.53;5.32;;;;;;;11.66;100.00;100847.09;4351767;32;20163;-76
2021/12/30 03:48:45;;;;;;;4.40;4.20;;;;;;;11.35;100.00;100792.72;4364959;32;20151;-76
2021/12/30 03:51:14;;;;;;;6.30;6.00;;;;;;;11.31;100.00;100794.66;4358075;32;20105;-76
2021/12/30 03:53:41;;;;;;;4.35;4.15;;;;;;;11.71;100.00;100837.19;4365700;32;20091;-76
2021/12/30 03:56:07;;;;;;;5.68;5.37;;;;;;;11.23;100.00;100767.12;4354898;32;20386;-76
2021/12/30 03:58:32;;;;;;;4.57;4.37;;;;;;;11.73;100.00;100853.72;4367656;32;20413;-76
2021/12/30 04:00:58;;;;;;;4.43;4.22;;;;;;;11.73;100.00;100847.63;4353737;32;20194;-76
2021/12/30 04:03:23;;;;;;;4.45;4.25;;;;;;;11.72;100.00;100856.41;4369149;32;20426;-76
2021/12/30 04:05:48;;;;;;;4.40;4.20;;;;;;;10.74;100.00;100686.53;4367305;32;20077;-76
2021/12/30 04:08:14;;;;;;;6.05;5.75;;;;;;;11.74;100.00;100854.56;4368974;32;20416;-77
2021/12/30 04:10:39;;;;;;;4.60;4.40;;;;;;;11.72;100.00;100854.63;4376007;32;20065;-76
2021/12/30 04:13:04;;;;;;;4.80;4.60;;;;;;;11.55;100.00;100837.16;4371831;32;20638;-76
2021/12/30 04:15:30;;;;;;;4.30;4.10;;;;;;;11.67;100.00;100856.69;4351820;32;20069;-76
2021/12/30 04:17:55;;;;;;;4.40;4.20;;;;;;;11.25;100.00;100799.41;4371097;32;20079;-77
2021/12/30 04:20:20;;;;;;;5.82;5.43;;;;;;;11.66;100.00;100862.84;4356268;32;20951;-76
2021/12/30 04:22:46;;;;;;;4.53;4.32;;;;;;;11.52;100.00;100836.47;4366744;32;20065;-75
2021/12/30 04:25:12;;;;;;;5.90;5.60;;;;;;;11.62;100.00;100850.81;4368779;32;20070;-76
2021/12/30 04:27:38;;;;;;;4.40;4.20;;;;;;;11.47;100.00;100825.38;4367353;32;20085;-76
2021/12/30 04:30:04;;;;;;;4.30;4.10;;;;;;;11.58;100.00;100844.88;4368646;32;20138;-75
2021/12/30 04:32:29;;;;;;;4.50;4.30;;;;;;;11.55;100.00;100845.03;4365813;32;20579;-77
2021/12/30 04:34:55;;;;;;;4.50;4.30;;;;;;;11.63;100.00;100854.31;4373058;32;20088;-76
2021/12/30 04:37:20;;;;;;;6.18;5.87;;;;;;;11.64;100.00;100859.47;4365041;32;20089;-75
2021/12/30 04:39:46;;;;;;;4.55;4.35;;;;;;;10.45;100.00;100654.81;4354863;32;20119;-76
2021/12/30 04:42:11;;;;;;;5.90;5.60;;;;;;;11.00;100.00;100755.19;4369724;32;20089;-75
2021/12/30 04:44:36;;;;;;;4.60;4.40;;;;;;;11.41;100.00;100805.53;4368093;32;20080;-75
2021/12/30 04:47:02;;;;;;;4.82;4.62;;;;;;;10.10;100.00;100588.41;4371407;32;20101;-75
2021/12/30 04:49:27;;;;;;;4.75;4.55;;;;;;;11.81;100.00;100858.56;4359731;32;20073;-75
2021/12/30 04:51:53;;;;;;;5.28;4.97;;;;;;;11.87;100.00;100855.59;4369005;32;20078;-75
2021/12/30 04:54:18;;;;;;;5.82;5.57;;;;;;;11.32;100.00;100758.72;4360853;32;20101;-75
2021/12/30 04:56:44;;;;;;;4.57;4.37;;;;;;;11.93;100.00;100847.41;4370613;32;20207;-74
2021/12/30 04:59:09;;;;;;;5.95;5.68;;;;;;;11.97;100.00;100850.72;4349665;32;20078;-76
2021/12/30 05:01:35;;;;;;;4.90;4.70;;;;;;;11.82;100.00;100799.75;4372681;32;20136;-75
2021/12/30 05:04:00;;;;;;;4.50;4.30;;;;;;;12.12;100.00;100849.84;4371367;32;20073;-75
2021/12/30 05:06:25;;;;;;;4.45;4.25;;;;;;;12.21;100.00;100855.50;4356740;32;20244;-75
2021/12/30 05:08:51;;;;;;;4.70;4.50;;;;;;;11.98;100.00;100819.03;4372161;32;20365;-75
2021/12/30 05:11:16;;;;;;;6.37;6.07;;;;;;;12.24;100.00;100868.50;4353764;32;20163;-75
2021/12/30 05:13:41;;;;;;;4.57;4.37;;;;;;;11.03;100.00;100661.34;4367417;32;20274;-76
2021/12/30 05:16:07;;;;;;;5.60;5.35;;;;;;;12.43;100.00;100877.06;4353751;32;20556;-76
2021/12/30 05:18:33;;;;;;;5.00;4.80;;;;;;;12.34;100.00;100831.03;4358351;32;20083;-76
2021/12/30 05:21:03;;;;;;;4.70;4.50;;;;;;;12.52;100.00;100871.25;4368299;32;20080;-76
2021/12/30 05:23:28;;;;;;;4.60;4.40;;;;;;;12.33;100.00;100868.84;4355555;32;20154;-75
2021/12/30 05:25:54;;;;;;;4.55;4.35;;;;;;;11.86;100.00;100751.31;4374065;32;20058;-76
2021/12/30 05:28:19;;;;;;;6.03;5.72;;;;;;;9.80;100.00;100423.94;4352548;32;20518;-76
2021/12/30 05:30:45;;;;;;;4.47;4.28;;;;;;;11.80;100.00;100743.78;4385660;32;20072;-75
2021/12/30 05:33:10;;;;;;;5.47;5.28;;;;;;;12.16;100.00;100788.22;4351983;32;20117;-77
2021/12/30 05:35:35;;;;;;;4.50;4.30;;;;;;;12.58;100.00;100851.63;4372625;32;20065;-76
2021/12/30 05:38:02;;;;;;;4.55;4.35;;;;;;;11.56;100.00;100683.75;4361889;32;21015;-76
2021/12/30 05:40:28;;;;;;;4.30;4.10;;;;;;;12.70;100.00;100865.88;4350411;32;20069;-76
2021/12/30 05:42:53;;;;;;;4.70;4.50;;;;;;;12.38;100.00;100808.03;4381067;32;20453;-76
2021/12/30 05:45:19;;;;;;;6.00;5.70;;;;;;;12.79;100.00;100881.13;4352455;32;20061;-77
2021/12/30 05:47:48;;;;;;;4.75;4.55;;;;;;;12.85;100.00;100891.31;4370583;32;20204;-75
2021/12/30 05:50:15;;;;;;;5.95;5.65;;;;;;;12.84;100.00;100884.34;4354316;32;20100;-76
2021/12/30 05:52:40;;;;;;;4.70;4.50;;;;;;;12.90;100.00;100891.03;4368804;32;20149;-76
2021/12/30 05:55:06;;;;;;;5.82;5.43;;;;;;;12.88;100.00;100891.13;4352659;32;20172;-77
2021/12/30 05:57:31;;;;;;;4.50;4.30;;;;;;;12.49;100.00;100834.59;4366968;32;20548;-76
2021/12/30 05:59:56;;;;;;;4.53;4.32;;;;;;;12.59;100.00;100848.06;4363364;32;20077;-77
2021/12/30 06:02:22;;;;;;;5.37;5.18;;;;;;;12.65;100.00;100866.16;4365429;32;20352;-76
2021/12/30 06:04:47;;;;;;;4.55;4.35;;;;;;;12.23;100.00;100804.50;4354299;32;20077;-76
2021/12/30 06:07:13;;;;;;;6.03;5.72;;;;;;;12.53;100.00;100837.91;4368991;32;20110;-77
2021/12/30 06:09:38;;;;;;;4.85;4.65;;;;;;;12.93;100.00;100898.78;4354630;32;20078;-77
2021/12/30 06:12:04;;;;;;;4.53;4.32;;;;;;;11.88;100.00;100725.78;4360677;32;20539;-77
2021/12/30 06:14:29;;;;;;;4.60;4.40;;;;;;;12.94;100.00;100901.28;4360460;32;20164;-75
2021/12/30 06:16:54;;;;;;;4.90;4.70;;;;;;;12.89;100.00;100889.31;4368277;32;20080;-76
2021/12/30 06:19:20;;;;;;;6.90;5.90;;;;;;;12.56;100.00;100833.28;4357655;32;20077;-75
2021/12/30 06:21:45;;;;;;;4.55;4.35;;;;;;;13.00;100.00;100899.25;4362260;32;20661;-76
2021/12/30 06:24:11;;;;;;;5.70;5.47;;;;;;;12.98;100.00;100889.62;4352264;32;20115;-74
2021/12/30 06:26:36;;;;;;;4.72;4.53;;;;;;;13.01;100.00;100914.97;4363410;32;20084;-74
2021/12/30 06:29:02;;;;;;;4.62;4.43;;;;;;;12.82;100.00;100872.19;4352214;32;20564;-74
2021/12/30 06:31:27;;;;;;;4.82;4.62;;;;;;;13.04;100.00;100917.41;4353674;32;20058;-74
2021/12/30 06:33:52;;;;;;;4.40;4.20;;;;;;;12.46;100.00;100832.12;4354139;32;20140;-75
2021/12/30 06:36:21;;;;;;;5.72;5.50;;;;;;;13.07;100.00;100917.25;4358912;32;20091;-75
2021/12/30 06:38:46;;;;;;;5.00;4.80;;;;;;;12.33;100.00;100799.56;4365303;32;20579;-75
2021/12/30 06:41:12;;;;;;;6.25;5.95;;;;;;;13.08;100.00;100926.81;4358019;32;20066;-77
2021/12/30 06:43:37;;;;;;;4.50;4.30;;;;;;;12.53;100.00;100841.38;4369152;32;20155;-76
2021/12/30 06:46:05;;;;;;;5.10;4.87;;;;;;;11.86;100.00;100725.03;4366009;32;20060;-76
2021/12/30 06:48:30;;;;;;;6.00;5.60;;;;;;;13.10;100.00;100927.59;4370481;32;20472;-74
2021/12/30 06:50:56;;;;;;;4.90;4.70;;;;;;;13.11;100.00;100931.94;4368540;32;20070;-76
2021/12/30 06:53:22;;;;;;;5.97;5.68;;;;;;;13.08;100.00;100928.63;4350892;32;20075;-76
2021/12/30 06:55:48;;;;;;;4.57;4.37;;;;;;;13.06;100.00;100925.22;4371105;32;20592;-74
2021/12/30 06:58:13;;;;;;;6.15;5.85;;;;;;;13.04;100.00;100927.09;4355189;32;20497;-74
2021/12/30 07:00:39;;;;;;;4.50;4.30;;;;;;;12.52;100.00;100841.44;4353494;32;20404;-76
2021/12/30 07:03:05;;;;;;;5.07;4.62;;;;;;;13.07;100.00;100933.06;4368564;32;20065;-75
2021/12/30 07:05:31;;;;;;;4.70;4.50;;;;;;;13.11;100.00;100944.22;4369103;32;20083;-75
2021/12/30 07:07:56;;;;;;;4.55;4.35;;;;;;;13.09;100.00;100935.56;4371279;32;20070;-75
2021/12/30 07:10:22;;;;;;;26.02;24.73;;;;;;;12.97;100.00;100932.75;4314100;32;20314;-76
2021/12/30 07:12:47;;;;;;;4.87;4.68;;;;;;;13.11;100.00;100928.41;4284824;32;20084;-76
2021/12/30 07:15:12;;;;;;;6.30;6.00;;;;;;;11.78;100.00;100720.19;4355971;32;20563;-76
2021/12/30 07:17:38;;;;;;;4.70;4.50;;;;;;;13.08;100.00;100940.00;4371485;32;20077;-77
2021/12/30 07:20:04;;;;;;;4.80;4.60;;;;;;;13.01;100.00;100933.41;4369667;32;20086;-75
2021/12/30 07:22:29;;;;;;;5.22;5.03;;;;;;;12.52;100.00;100846.72;4349001;32;20088;-76
2021/12/30 07:24:56;;;;;;;4.82;4.62;;;;;;;13.07;100.00;100943.59;4357164;32;20091;-76
2021/12/30 07:27:21;;;;;;;6.07;5.78;;;;;;;12.87;100.00;100928.06;4351354;32;20066;-76
2021/12/30 07:29:46;;;;;;;4.60;4.40;;;;;;;13.03;100.00;100949.97;4369842;32;20168;-75
2021/12/30 07:32:12;;;;;;;6.18;5.87;;;;;;;13.02;100.00;100966.72;4346579;32;20076;-76
2021/12/30 07:34:37;;;;;;;4.68;4.47;;;;;;;12.94;100.00;100951.34;4356724;32;20065;-75
2021/12/30 07:37:02;;;;;;;4.70;4.50;;;;;;;13.04;100.00;100970.09;4366270;32;20097;-76
2021/12/30 07:39:28;;;;;;;5.32;5.03;;;;;;;12.83;100.00;100950.25;4366811;32;20091;-76
2021/12/30 07:41:53;;;;;;;4.68;4.47;;;;;;;13.09;100.00;100962.78;4374894;32;20085;-74
2021/12/30 07:44:18;;;;;;;6.07;5.78;;;;;;;13.10;100.00;100966.25;4359643;32;20147;-73
2021/12/30 07:46:44;;;;;;;4.68;4.47;;;;;;;13.24;100.00;100997.09;4366227;32;20689;-74
2021/12/30 07:49:09;;;;;;;5.43;5.22;;;;;;;13.24;100.00;101008.47;4356196;32;20062;-73
2021/12/30 07:51:35;;;;;;;4.68;4.47;;;;;;;13.22;100.00;101012.97;4377313;32;20085;-73
2021/12/30 07:54:00;;;;;;;4.45;4.25;;;;;;;13.17;100.00;101015.91;4365615;32;20130;-74
2021/12/30 07:56:25;;;;;;;4.70;4.50;;;;;;;13.05;100.00;101007.84;4365247;32;20082;-73
2021/12/30 07:58:51;;;;;;;4.60;4.40;;;;;;;13.15;100.00;101023.03;4353000;32;20203;-74
2021/12/30 08:01:17;;;;;;;6.05;5.75;;;;;;;13.15;100.00;101035.38;4350193;32;20089;-74
2021/12/30 08:03:42;;;;;;;4.70;4.50;;;;;;;13.16;100.00;101043.16;4368924;32;20079;-74
2021/12/30 08:06:08;;;;;;;6.03;5.75;;;;;;;12.84;100.00;100997.59;4348974;32;20069;-75
2021/12/30 08:08:33;;;;;;;4.78;4.57;;;;;;;13.05;100.00;101031.53;4367762;32;20751;-74
2021/12/30 08:10:58;;;;;;;4.75;4.55;;;;;;;13.06;100.00;101025.34;4366331;32;20085;-74
2021/12/30 08:13:24;;;;;;;5.60;5.40;;;;;;;13.14;100.00;101046.84;4354254;32;20233;-75
2021/12/30 08:15:50;;;;;;;4.65;4.45;;;;;;;13.08;100.00;101034.84;4362217;32;20845;-76
2021/12/30 08:18:15;;;;;;;6.07;5.78;;;;;;;13.18;100.00;101051.84;4358835;32;20470;-76
2021/12/30 08:20:41;;;;;;;4.70;4.50;;;;;;;13.12;100.00;101046.06;4365995;32;20714;-75
2021/12/30 08:23:06;;;;;;;5.95;5.45;;;;;;;13.25;100.00;101069.94;4355627;32;20069;-74
2021/12/30 08:25:32;;;;;;;4.50;4.30;;;;;;;12.75;100.00;100979.69;4364205;32;20081;-75
2021/12/30 08:27:57;;;;;;;4.53;4.32;;;;;;;13.27;100.00;101061.03;4371178;32;20124;-74
2021/12/30 08:30:23;;;;;;;5.10;4.90;;;;;;;13.24;100.00;101060.34;4361859;32;20102;-74
2021/12/30 08:32:49;;;;;;;4.68;4.47;;;;;;;13.22;100.00;101067.50;4371537;32;20095;-75
2021/12/30 08:35:16;;;;;;;5.97;5.68;;;;;;;13.18;100.00;101066.81;4348010;32;20081;-75
2021/12/30 08:37:41;;;;;;;4.50;4.30;;;;;;;13.11;100.00;101066.31;4363425;32;20069;-76
2021/12/30 08:40:08;;;;;;;5.07;4.87;;;;;;;13.05;100.00;101056.12;4373313;32;20528;-75
2021/12/30 08:42:33;;;;;;;4.80;4.60;;;;;;;13.16;100.00;101066.88;4364165;32;20202;-75
2021/12/30 08:44:59;;;;;;;4.60;4.40;;;;;;;13.18;100.00;101083.47;4376237;32;20392;-76
2021/12/30 08:47:25;;;;;;;4.50;4.30;;;;;;;12.02;100.00;100890.75;4361259;32;20657;-75
2021/12/30 08:49:50;;;;;;;4.60;4.40;;;;;;;13.10;100.00;101069.88;4350870;32;20076;-76
2021/12/30 08:52:17;;;;;;;5.80;5.55;;;;;;;13.17;100.00;101088.84;4371970;32;20094;-76
2021/12/30 08:54:43;;;;;;;4.70;4.50;;;;;;;13.18;100.00;101083.47;4377526;32;20074;-75
2021/12/30 08:57:08;;;;;;;5.45;5.25;;;;;;;13.18;100.00;101094.00;4351133;32;20073;-75
2021/12/30 08:59:35;;;;;;;4.80;4.60;;;;;;;13.16;100.00;101090.59;4362580;32;20069;-74
2021/12/30 09:02:01;;;;;;;4.53;4.32;;;;;;;13.21;100.00;101093.00;4379944;32;20439;-75
2021/12/30 09:04:26;;;;;;;5.35;5.15;;;;;;;13.26;100.00;101103.28;4363251;32;20545;-75
2021/12/30 09:06:52;;;;;;;4.60;4.40;;;;;;;13.20;100.00;101069.38;4368038;32;20690;-74
2021/12/30 09:09:17;;;;;;;5.78;5.55;;;;;;;13.31;100.00;101080.16;4353111;32;20320;-76
2021/12/30 09:11:43;;;;;;;4.60;4.40;;;;;;;13.23;100.00;101061.25;4365846;32;20084;-75
2021/12/30 09:14:08;;;;;;;5.85;5.57;;;;;;;13.42;100.00;101084.81;4349082;32;20085;-75
2021/12/30 09:16:34;;;;;;;4.90;4.70;;;;;;;12.75;100.00;100972.63;4365333;32;20603;-76
2021/12/30 09:18:59;;;;;;;4.57;4.37;;;;;;;13.32;100.00;101052.88;4376051;32;20497;-77
2021/12/30 09:21:25;;;;;;;4.80;4.60;;;;;;;13.50;100.00;101091.34;4363563;32;20089;-76
2021/12/30 09:23:50;;;;;;;4.45;4.25;;;;;;;13.50;100.00;101090.50;4357130;32;20698;-77
2021/12/30 09:26:15;;;;;;;6.30;6.00;;;;;;;13.40;100.00;101076.16;4347566;32;20065;-76
2021/12/30 09:28:41;;;;;;;4.90;4.70;;;;;;;13.17;100.00;101046.69;4367346;32;20066;-76
2021/12/30 09:31:06;;;;;;;5.62;5.32;;;;;;;12.96;100.00;101001.31;4366438;32;20571;-77
2021/12/30 09:33:32;;;;;;;4.60;4.40;;;;;;;13.55;100.00;101102.47;4370895;32;20511;-76
2021/12/30 09:36:00;;;;;;;4.70;4.50;;;;;;;13.55;100.00;101114.78;4363269;32;20073;-76
2021/12/30 09:38:25;;;;;;;4.90;4.70;;;;;;;13.59;100.00;101113.72;4375339;32;20199;-76
2021/12/30 09:40:50;;;;;;;4.62;4.43;;;;;;;12.91;100.00;101003.34;4361454;32;20388;-75
2021/12/30 09:43:16;;;;;;;5.82;5.57;;;;;;;13.78;100.00;101118.75;4347851;32;20096;-76
2021/12/30 09:45:41;;;;;;;4.50;4.30;;;;;;;13.75;100.00;101122.41;4367171;32;20404;-77
2021/12/30 09:48:09;;;;;;;5.30;5.10;;;;;;;13.67;100.00;101103.56;4364312;32;20100;-75
2021/12/30 09:50:54;;;;;;;4.55;4.35;;;;;;;13.45;100.00;101069.69;4380610;32;20625;-76
2021/12/30 09:53:21;;;;;;;6.00;5.70;;;;;;;13.57;100.00;101090.06;4365564;32;20065;-76
2021/12/30 09:55:46;;;;;;;4.70;4.50;;;;;;;13.74;100.00;101120.72;4363471;32;20139;-76
2021/12/30 09:58:11;;;;;;;5.62;5.43;;;;;;;13.84;100.00;101138.63;4353737;32;20141;-75
2021/12/30 10:00:37;;;;;;;4.90;4.70;;;;;;;13.82;100.00;101141.38;4349222;32;20143;-77
2021/12/30 10:03:03;;;;;;;4.80;4.60;;;;;;;13.58;100.00;101096.19;4380588;32;20195;-75
2021/12/30 10:05:31;;;;;;;5.18;4.97;;;;;;;13.84;100.00;101150.03;4368306;32;20058;-77
2021/12/30 10:08:20;;;;;;;4.70;4.50;;;;;;;13.90;100.00;101140.91;4371806;32;20143;-76
2021/12/30 10:10:49;;;;;;;4.68;4.47;;;;;;;13.81;100.00;101118.56;4357084;32;20077;-77
2021/12/30 10:13:29;;;;;;;6.47;6.18;;;;;;;13.43;100.00;101053.09;4357076;32;20165;-77
2021/12/30 10:15:59;;;;;;;4.57;4.37;;;;;;;13.72;100.00;101087.44;4366830;32;20512;-76
2021/12/30 10:18:25;;;;;;;4.65;4.45;;;;;;;14.02;100.00;101127.00;4369178;32;20388;-75
2021/12/30 10:20:50;;;;;;;5.00;4.80;;;;;;;14.01;100.00;101135.88;4354846;32;20113;-76
2021/12/30 10:23:19;;;;;;;5.95;5.65;;;;;;;13.98;100.00;101130.75;4357005;32;20762;-76
2021/12/30 10:25:49;;;;;;;4.60;4.40;;;;;;;12.79;100.00;100936.44;4372031;32;20077;-76
2021/12/30 10:28:25;;;;;;;6.05;5.75;;;;;;;14.07;100.00;101142.53;4350959;32;20089;-76
2021/12/30 10:30:55;;;;;;;4.60;4.40;;;;;;;13.76;100.00;101099.53;4382162;32;20064;-76
2021/12/30 10:33:22;;;;;;;5.72;5.50;;;;;;;14.01;100.00;101130.59;4352257;32;20083;-75
2021/12/30 10:35:48;;;;;;;4.65;4.45;;;;;;;14.15;100.00;101158.75;4367091;32;20089;-76
2021/12/30 10:38:14;;;;;;;5.82;5.57;;;;;;;14.16;100.00;101165.75;4362081;32;20073;-75
2021/12/30 10:40:42;;;;;;;4.70;4.50;;;;;;;14.06;100.00;101132.94;4368020;32;20069;-77
2021/12/30 10:43:26;;;;;;;5.20;5.00;;;;;;;14.17;100.00;101162.16;4369130;32;20112;-76
2021/12/30 10:46:10;;;;;;;4.80;4.60;;;;;;;14.22;100.00;101159.25;4381330;32;20101;-76
2021/12/30 10:48:47;;;;;;;4.72;4.53;;;;;;;14.14;100.00;101130.69;4375823;32;20061;-75
2021/12/30 10:51:21;;;;;;;6.20;5.90;;;;;;;14.38;100.00;101153.91;4381103;32;20072;-75
2021/12/30 10:53:46;;;;;;;4.95;4.75;;;;;;;14.42;99.42;101165.97;4383659;32;20088;-75
2021/12/30 10:56:30;;;;;;;6.20;5.90;;;;;;;14.38;98.76;101161.84;4352716;32;20751;-75
2021/12/30 10:59:10;;;;;;;5.00;4.80;;;;;;;14.39;98.39;101159.06;4381752;32;20180;-76
2021/12/30 11:01:37;;;;;;;4.75;4.53;;;;;;;14.44;98.79;101153.53;4368668;32;20083;-75
2021/12/30 11:04:06;;;;;;;4.90;4.70;;;;;;;14.49;97.55;101154.09;4370070;32;20122;-75
2021/12/30 11:06:31;;;;;;;4.90;4.70;;;;;;;13.77;96.69;101024.69;4368745;32;20616;-76
2021/12/30 11:09:23;;;;;;;4.78;4.57;;;;;;;14.54;95.80;101149.37;4380496;32;20126;-74
2021/12/30 11:11:53;;;;;;;5.43;5.00;;;;;;;14.50;96.43;101148.72;4383644;32;20085;-75
2021/12/30 11:14:23;;;;;;;6.20;5.90;;;;;;;14.53;96.67;101153.81;4354586;32;20156;-76